Time;durP1;ratioP1;P1;durP2;ratioP2;P2;SDS_P1;SDS_P2;PMS_P1;PMS_P2;Temp;Humidity;BMP_temperature;BMP_pressure;BME280_temperature;BME280_humidity;BME280_pressure;Samples;Min_cycle;Max_cycle;Signal;HPM_P1;HPM_P2
2022/10/11 00:02:15;;;;;;;;;;;;;;;11.48;100.00;96156.44;10560448;28;3176;-74
2022/10/11 00:07:19;;;;;;;;;;;;;;;11.50;100.00;96159.66;10561935;28;2735;-73
2022/10/11 00:12:22;;;;;;;;;;;;;;;11.57;100.00;96170.16;10560203;28;2795;-71
2022/10/11 00:17:25;;;;;;;;;;;;;;;11.56;100.00;96171.22;10547735;28;3217;-72
2022/10/11 00:22:38;;;;;;;;;;;;;;;11.59;100.00;96173.41;10553256;28;3231;-72
2022/10/11 00:27:41;;;;;;;;;;;;;;;11.63;100.00;96180.66;10560615;28;2108;-75
2022/10/11 00:32:44;;;;;;;;;;;;;;;11.72;100.00;96183.63;10558546;28;2845;-72
2022/10/11 00:37:48;;;;;;;;;;;;;;;11.84;100.00;96184.19;10549777;28;3159;-72
2022/10/11 00:42:51;;;;;;;;;;;;;;;11.90;100.00;96182.28;10542565;28;2766;-73
2022/10/11 00:47:55;;;;;;;;;;;;;;;12.03;100.00;96191.69;10562011;28;2160;-74
2022/10/11 00:52:58;;;;;;;;;;;;;;;12.02;100.00;96196.25;10547690;28;2062;-75
2022/10/11 00:58:01;;;;;;;;;;;;;;;12.08;100.00;96202.44;10552386;28;2718;-74
2022/10/11 01:03:04;;;;;;;;;;;;;;;12.10;100.00;96200.31;10541569;28;3171;-73
2022/10/11 01:08:08;;;;;;;;;;;;;;;12.11;100.00;96202.72;10557778;28;3188;-73
2022/10/11 01:13:11;;;;;;;;;;;;;;;12.19;100.00;96206.75;10561892;28;2168;-73
2022/10/11 01:18:14;;;;;;;;;;;;;;;12.13;100.00;96205.13;10556569;28;3184;-73
2022/10/11 01:23:18;;;;;;;;;;;;;;;12.02;100.00;96203.53;10558581;28;3260;-74
2022/10/11 01:28:21;;;;;;;;;;;;;;;11.88;100.00;96201.41;10554830;28;2726;-73
2022/10/11 01:33:24;;;;;;;;;;;;;;;11.78;100.00;96203.28;10563159;28;2140;-73
2022/10/11 01:38:28;;;;;;;;;;;;;;;11.75;100.00;96204.63;10559230;28;2043;-74
2022/10/11 01:43:31;;;;;;;;;;;;;;;11.79;100.00;96194.94;10554413;28;2151;-73
2022/10/11 01:48:36;;;;;;;;;;;;;;;11.77;100.00;96205.16;10559116;28;3176;-73
2022/10/11 01:53:40;;;;;;;;;;;;;;;11.78;100.00;96203.28;10561818;28;2655;-74
2022/10/11 01:58:43;;;;;;;;;;;;;;;11.78;100.00;96209.47;10555418;28;2733;-77
2022/10/11 02:03:46;;;;;;;;;;;;;;;11.79;100.00;96204.88;10559755;28;2793;-72
2022/10/11 02:08:50;;;;;;;;;;;;;;;11.84;100.00;96203.03;10571017;28;2746;-71
2022/10/11 02:13:53;;;;;;;;;;;;;;;11.79;100.00;96204.88;10563243;28;2063;-73
2022/10/11 02:18:56;;;;;;;;;;;;;;;11.82;100.00;96193.59;10557924;28;3199;-70
2022/10/11 02:23:59;;;;;;;;;;;;;;;11.83;100.00;96187.97;10556616;28;3280;-73
2022/10/11 02:29:03;;;;;;;;;;;;;;;11.81;100.00;96194.69;10552915;28;2166;-72
2022/10/11 02:34:06;;;;;;;;;;;;;;;11.77;100.00;96189.00;10566141;28;3231;-70
2022/10/11 02:39:09;;;;;;;;;;;;;;;11.80;100.00;96187.66;10559955;28;3179;-73
2022/10/11 02:44:13;;;;;;;;;;;;;;;11.86;100.00;96190.09;10563138;28;2779;-73
2022/10/11 02:49:16;;;;;;;;;;;;;;;11.88;100.00;96196.00;10562742;28;3127;-77
2022/10/11 02:54:19;;;;;;;;;;;;;;;11.86;100.00;96195.47;10562326;28;2745;-75
2022/10/11 02:59:22;;;;;;;;;;;;;;;11.91;100.00;96178.50;10533308;28;3501;-73
2022/10/11 03:04:25;;;;;;;;;;;;;;;11.84;100.00;96189.56;10563581;28;3273;-73
2022/10/11 03:09:29;;;;;;;;;;;;;;;11.88;100.00;96196.00;10554547;28;3151;-72
2022/10/11 03:14:32;;;;;;;;;;;;;;;11.85;100.00;96195.75;10555932;28;2754;-72
2022/10/11 03:19:35;;;;;;;;;;;;;;;11.86;100.00;96200.06;10553367;28;2764;-75
2022/10/11 03:24:38;;;;;;;;;;;;;;;11.93;100.00;96205.19;10553680;28;2691;-73
2022/10/11 03:29:42;;;;;;;;;;;;;;;11.89;100.00;96219.16;10553939;28;2074;-72
2022/10/11 03:34:45;;;;;;;;;;;;;;;11.89;100.00;96224.56;10562827;28;3192;-74
2022/10/11 03:39:48;;;;;;;;;;;;;;;11.96;100.00;96231.56;10564245;28;2047;-72
2022/10/11 03:44:51;;;;;;;;;;;;;;;11.94;100.00;96234.53;10562902;28;2717;-72
2022/10/11 03:49:55;;;;;;;;;;;;;;;12.04;100.00;96239.13;10571414;28;2761;-72
2022/10/11 03:54:58;;;;;;;;;;;;;;;12.01;100.00;96251.22;10562079;28;3132;-71
2022/10/11 04:00:01;;;;;;;;;;;;;;;11.97;100.00;96249.38;10564253;28;2091;-71
2022/10/11 04:05:05;;;;;;;;;;;;;;;11.96;100.00;96245.03;10576529;28;3145;-73
2022/10/11 04:10:08;;;;;;;;;;;;;;;11.98;100.00;96250.97;10568521;28;2155;-71
2022/10/11 04:15:12;;;;;;;;;;;;;;;11.94;100.00;96255.28;10570477;28;3250;-72
2022/10/11 04:20:16;;;;;;;;;;;;;;;11.93;100.00;96251.78;10570158;28;2132;-71
2022/10/11 04:25:20;;;;;;;;;;;;;;;11.89;100.00;96245.31;10573482;28;2847;-71
2022/10/11 04:30:23;;;;;;;;;;;;;;;11.89;100.00;96246.13;10564646;28;2159;-73
2022/10/11 04:35:26;;;;;;;;;;;;;;;11.96;100.00;96243.16;10563106;28;3206;-72
2022/10/11 04:40:29;;;;;;;;;;;;;;;11.97;100.00;96243.97;10566876;28;2761;-73
2022/10/11 04:45:33;;;;;;;;;;;;;;;11.87;100.00;96245.59;10563782;28;3148;-70
2022/10/11 04:50:36;;;;;;;;;;;;;;;11.82;100.00;96240.19;10568426;28;2085;-72
2022/10/11 04:55:39;;;;;;;;;;;;;;;11.82;100.00;96244.78;10551175;28;3557;-75
2022/10/11 05:00:47;;;;;;;;;;;;;;;11.81;100.00;96249.34;10561725;28;1992;-70
2022/10/11 05:05:50;;;;;;;;;;;;;;;11.77;100.00;96250.97;10563542;28;2723;-71
2022/10/11 05:10:53;;;;;;;;;;;;;;;11.66;100.00;96251.22;10561205;28;3139;-69
2022/10/11 05:15:57;;;;;;;;;;;;;;;11.75;100.00;96247.69;10559528;28;2067;-71
2022/10/11 05:21:00;;;;;;;;;;;;;;;11.76;100.00;96264.66;10540518;28;3136;-71
2022/10/11 05:26:03;;;;;;;;;;;;;;;11.75;100.00;96253.09;10563218;28;3263;-71
2022/10/11 05:31:07;;;;;;;;;;;;;;;11.73;100.00;96255.25;10562596;28;2731;-71
2022/10/11 05:36:16;;;;;;;;;;;;;;;11.71;100.00;96256.59;10554429;28;2046;-72
2022/10/11 05:41:19;;;;;;;;;;;;;;;11.70;100.00;96261.16;10550435;28;3219;-75
2022/10/11 05:46:23;;;;;;;;;;;;;;;11.82;100.00;96264.44;10551973;28;2703;-75
2022/10/11 05:51:30;;;;;;;;;;;;;;;11.91;100.00;96270.09;10554987;28;3269;-71
2022/10/11 05:56:34;;;;;;;;;;;;;;;11.98;100.00;96278.72;10553347;28;2714;-72
2022/10/11 06:01:37;;;;;;;;;;;;;;;12.14;100.00;96288.41;10553079;28;3286;-72
2022/10/11 06:06:40;;;;;;;;;;;;;;;12.28;100.00;96286.00;10557310;28;3418;-73
2022/10/11 06:11:44;;;;;;;;;;;;;;;12.43;100.00;96285.16;10556525;28;3405;-72
2022/10/11 06:16:47;;;;;;;;;;;;;;;12.53;100.00;96282.41;10554101;28;2135;-73
2022/10/11 06:21:55;;;;;;;;;;;;;;;12.66;100.00;96283.72;10548493;28;2170;-72
2022/10/11 06:26:59;;;;;;;;;;;;;;;12.70;100.00;96290.19;10548161;28;3326;-72
2022/10/11 06:32:02;;;;;;;;;;;;;;;12.89;100.00;96293.91;10547570;28;3293;-72
2022/10/11 06:37:05;;;;;;;;;;;;;;;13.01;100.00;96293.59;10535250;28;3428;-73
2022/10/11 06:42:12;;;;;;;;;;;;;;;13.12;100.00;96294.38;10552172;28;3311;-72
2022/10/11 06:47:15;;;;;;;;;;;;;;;13.20;100.00;96291.09;10554439;28;2141;-72
2022/10/11 06:52:19;;;;;;;;;;;;;;;13.38;100.00;96300.50;10549220;28;2193;-71
2022/10/11 06:57:22;;;;;;;;;;;;;;;13.41;100.00;96308.81;10554300;28;2160;-74
2022/10/11 07:02:25;;;;;;;;;;;;;;;13.56;100.00;96313.34;10552069;28;2186;-73
2022/10/11 07:07:29;;;;;;;;;;;;;;;13.60;100.00;96308.19;10562483;28;2181;-72
2022/10/11 07:12:32;;;;;;;;;;;;;;;13.68;100.00;96310.31;10558066;28;2836;-71
2022/10/11 07:17:35;;;;;;;;;;;;;;;13.69;100.00;96318.13;10568767;28;3033;-72
2022/10/11 07:22:38;;;;;;;;;;;;;;;13.92;100.00;96332.84;10563672;28;3372;-72
2022/10/11 07:27:41;;;;;;;;;;;;;;;13.98;100.00;96325.50;10550838;28;3240;-72
2022/10/11 07:32:45;;;;;;;;;;;;;;;14.07;100.00;96330.03;10563956;28;3325;-71
2022/10/11 07:37:48;;;;;;;;;;;;;;;14.35;100.00;96333.06;10547857;28;3259;-72
2022/10/11 07:42:51;;;;;;;;;;;;;;;14.69;100.00;96322.19;10550797;28;3330;-72
2022/10/11 07:47:54;;;;;;;;;;;;;;;14.35;100.00;96327.63;10560241;28;2840;-73
2022/10/11 07:52:58;;;;;;;;;;;;;;;14.67;100.00;96339.81;10554390;28;2929;-73
2022/10/11 07:58:01;;;;;;;;;;;;;;;14.79;100.00;96332.13;10546506;28;3263;-73
2022/10/11 08:03:04;;;;;;;;;;;;;;;14.95;100.00;96333.59;10560929;28;3331;-73
2022/10/11 08:08:09;;;;;;;;;;;;;;;14.82;100.00;96336.97;10551787;28;3308;-72
2022/10/11 08:13:13;;;;;;;;;;;;;;;14.64;100.00;96337.72;10552149;28;2891;-73
2022/10/11 08:18:16;;;;;;;;;;;;;;;14.58;100.00;96345.06;10557428;28;3338;-72
2022/10/11 08:23:25;;;;;;;;;;;;;;;14.64;100.00;96348.53;10552415;28;3330;-73
2022/10/11 08:28:28;;;;;;;;;;;;;;;14.58;100.00;96340.44;10550042;28;2187;-74
2022/10/11 08:33:31;;;;;;;;;;;;;;;14.80;100.00;96347.28;10555727;28;2252;-73
2022/10/11 08:38:35;;;;;;;;;;;;;;;14.85;100.00;96345.31;10566359;28;2230;-72
2022/10/11 08:43:38;;;;;;;;;;;;;;;14.84;100.00;96354.53;10552532;28;3322;-73
2022/10/11 08:48:41;;;;;;;;;;;;;;;15.00;100.00;96352.47;10553321;28;3384;-73
2022/10/11 08:53:45;;;;;;;;;;;;;;;15.01;100.00;96364.09;10564273;28;2127;-73
2022/10/11 08:58:48;;;;;;;;;;;;;;;15.05;100.00;96362.44;10551602;28;2900;-73
2022/10/11 09:03:53;;;;;;;;;;;;;;;15.80;100.00;96353.69;10556410;28;3632;-73
2022/10/11 09:08:56;;;;;;;;;;;;;;;16.04;100.00;96354.44;10551669;28;2147;-73
2022/10/11 09:13:59;;;;;;;;;;;;;;;16.12;100.00;96351.03;10543158;28;3369;-73
2022/10/11 09:19:02;;;;;;;;;;;;;;;16.45;100.00;96349.16;10563040;28;2819;-72
2022/10/11 09:24:06;;;;;;;;;;;;;;;15.92;100.00;96351.34;10549596;28;3252;-73
2022/10/11 09:29:09;;;;;;;;;;;;;;;15.85;100.00;96356.34;10536542;28;2880;-74
2022/10/11 09:34:12;;;;;;;;;;;;;;;15.97;100.00;96350.44;10538870;28;2843;-77
2022/10/11 09:39:15;;;;;;;;;;;;;;;15.97;100.00;96347.75;10552882;28;3290;-75
2022/10/11 09:44:19;;;;;;;;;;;;;;;16.77;100.00;96338.63;10557947;28;3409;-71
2022/10/11 09:49:22;;;;;;;;;;;;;;;17.41;100.00;96325.97;10559970;28;2187;-71
2022/10/11 09:54:26;;;;;;;;;;;;;;;17.97;100.00;96327.50;10560717;28;2887;-71
2022/10/11 09:59:30;;;;;;;;;;;;;;;18.61;100.00;96325.41;10560779;28;2845;-72
2022/10/11 10:04:33;;;;;;;;;;;;;;;18.99;100.00;96316.81;10551843;28;3327;-73
2022/10/11 10:09:36;;;;;;;;;;;;;;;18.21;100.00;96325.28;10562137;28;2083;-73
2022/10/11 10:14:40;;;;;;;;;;;;;;;17.79;100.00;96329.25;10545492;28;3291;-72
2022/10/11 10:19:43;;;;;;;;;;;;;;;17.29;100.00;96324.56;10549960;28;3474;-72
2022/10/11 10:24:47;;;;;;;;;;;;;;;17.13;100.00;96328.69;10538939;28;2863;-72
2022/10/11 10:29:50;;;;;;;;;;;;;;;16.86;100.00;96334.09;10554987;28;2863;-72
2022/10/11 10:34:54;;;;;;;;;;;;;;;16.65;100.00;96336.34;10530269;28;3333;-73
2022/10/11 10:39:57;;;;;;;;;;;;;;;16.39;100.00;96344.13;10550003;28;3312;-73
2022/10/11 10:45:00;;;;;;;;;;;;;;;16.18;100.00;96349.88;10549111;28;3307;-73
2022/10/11 10:50:03;;;;;;;;;;;;;;;16.15;100.00;96333.38;10550997;28;2887;-71
2022/10/11 10:55:07;;;;;;;;;;;;;;;15.94;100.00;96338.31;10551883;28;3370;-74
2022/10/11 11:00:10;;;;;;;;;;;;;;;16.03;100.00;96336.56;10547479;28;3636;-72
2022/10/11 11:05:15;;;;;;;;;;;;;;;16.06;100.00;96335.94;10547916;28;3319;-73
2022/10/11 11:10:18;;;;;;;;;;;;;;;16.55;100.00;96334.63;10565486;28;2939;-74
2022/10/11 11:15:21;;;;;;;;;;;;;;;16.90;100.00;96325.06;10554156;28;3291;-72
2022/10/11 11:20:34;;;;;;;;;;;;;;;17.12;100.00;96308.06;10557652;28;2183;-73
2022/10/11 11:25:37;;;;;;;;;;;;;;;17.72;100.00;96310.63;10550919;28;2208;-72
2022/10/11 11:30:46;;;;;;;;;;;;;;;17.74;100.00;96311.13;10553387;28;2185;-72
2022/10/11 11:35:51;;;;;;;;;;;;;;;17.79;100.00;96302.84;10557489;28;3280;-77
2022/10/11 11:40:54;;;;;;;;;;;;;;;18.17;100.00;96299.81;10544415;28;2183;-72
2022/10/11 11:45:57;;;;;;;;;;;;;;;17.96;100.00;96299.50;10545512;28;2113;-72
2022/10/11 11:51:01;;;;;;;;;;;;;;;18.68;100.00;96290.38;10557237;28;2927;-74
2022/10/11 11:56:06;;;;;;;;;;;;;;;18.40;100.00;96292.44;10550171;28;3299;-73
2022/10/11 12:01:09;;;;;;;;;;;;;;;18.49;100.00;96293.28;10549288;28;3271;-73
2022/10/11 12:06:13;;;;;;;;;;;;;;;18.62;100.00;96286.97;10560157;28;2817;-73
2022/10/11 12:11:16;;;;;;;;;;;;;;;18.37;100.00;96293.84;10563503;28;2895;-74
2022/10/11 12:16:19;;;;;;;;;;;;;;;18.62;100.00;96283.44;10551700;28;3283;-71
2022/10/11 12:21:25;;;;;;;;;;;;;;;18.65;100.00;96277.38;10563093;28;2875;-73
2022/10/11 12:26:29;;;;;;;;;;;;;;;18.60;100.00;96274.78;10555619;28;3002;-73
2022/10/11 12:31:32;;;;;;;;;;;;;;;18.57;100.00;96265.31;10564334;28;3322;-73
2022/10/11 12:36:35;;;;;;;;;;;;;;;18.46;100.00;96258.53;10549593;28;3338;-73
2022/10/11 12:41:39;;;;;;;;;;;;;;;17.96;100.00;96255.97;10559481;28;2883;-72
2022/10/11 12:46:42;;;;;;;;;;;;;;;17.83;100.00;96252.19;10548368;28;2140;-72
2022/10/11 12:51:45;;;;;;;;;;;;;;;17.30;100.00;96271.00;10562528;28;3302;-73
2022/10/11 12:56:49;;;;;;;;;;;;;;;16.80;100.00;96273.66;10539068;28;2203;-71
2022/10/11 13:01:52;;;;;;;;;;;;;;;17.11;100.00;96265.69;10555253;28;2931;-74
2022/10/11 13:06:55;;;;;;;;;;;;;;;17.25;100.00;96263.78;10555649;28;2836;-72
2022/10/11 13:11:59;;;;;;;;;;;;;;;17.35;100.00;96264.69;10560633;28;2879;-75
2022/10/11 13:17:02;;;;;;;;;;;;;;;17.14;100.00;96267.03;10544029;28;2888;-74
2022/10/11 13:22:05;;;;;;;;;;;;;;;17.02;100.00;96270.25;10547400;28;2127;-74
2022/10/11 13:27:08;;;;;;;;;;;;;;;16.86;100.00;96264.31;10560375;28;3304;-75
2022/10/11 13:32:12;;;;;;;;;;;;;;;17.06;100.00;96263.09;10564639;28;3378;-72
2022/10/11 13:37:15;;;;;;;;;;;;;;;17.02;100.00;96262.91;10561386;28;2673;-72
2022/10/11 13:42:18;;;;;;;;;;;;;;;17.13;100.00;96260.78;10566244;28;2848;-74
2022/10/11 13:47:21;;;;;;;;;;;;;;;17.10;100.00;96249.72;10560539;28;3303;-72
2022/10/11 13:52:25;;;;;;;;;;;;;;;16.78;100.00;96256.84;10542042;28;2882;-72
2022/10/11 13:57:28;;;;;;;;;;;;;;;16.31;100.00;96263.41;10559938;28;2898;-72
2022/10/11 14:02:31;;;;;;;;;;;;;;;16.15;100.00;96269.06;10555434;28;2195;-71
2022/10/11 14:07:35;;;;;;;;;;;;;;;16.01;100.00;96265.53;10560472;28;3337;-74
2022/10/11 14:12:39;;;;;;;;;;;;;;;16.31;100.00;96260.69;10564837;28;2894;-72
2022/10/11 14:17:43;;;;;;;;;;;;;;;16.16;100.00;96253.63;10559380;28;2864;-73
2022/10/11 14:22:46;;;;;;;;;;;;;;;16.11;100.00;96268.09;10555649;28;2186;-74
2022/10/11 14:27:49;;;;;;;;;;;;;;;16.12;100.00;96261.56;10558057;28;3359;-76
2022/10/11 14:32:53;;;;;;;;;;;;;;;16.03;100.00;96266.06;10541656;28;3346;-76
2022/10/11 14:37:56;;;;;;;;;;;;;;;15.71;100.00;96263.28;10559070;28;3310;-76
2022/10/11 14:42:59;;;;;;;;;;;;;;;15.64;100.00;96259.03;10560866;28;2998;-75
2022/10/11 14:48:03;;;;;;;;;;;;;;;15.49;100.00;96274.69;10557264;28;2944;-74
2022/10/11 14:53:06;;;;;;;;;;;;;;;15.33;100.00;96266.78;10559404;28;2907;-73
2022/10/11 14:58:10;;;;;;;;;;;;;;;15.28;100.00;96276.88;10547399;28;2859;-73
2022/10/11 15:03:13;;;;;;;;;;;;;;;15.21;100.00;96271.00;10545219;28;2184;-73
2022/10/11 15:08:17;;;;;;;;;;;;;;;15.12;100.00;96263.50;10548885;28;3375;-76
2022/10/11 15:13:21;;;;;;;;;;;;;;;15.25;100.00;96261.19;10551540;28;3251;-73
2022/10/11 15:18:24;;;;;;;;;;;;;;;15.23;100.00;96271.53;10548307;28;3313;-74
2022/10/11 15:23:28;;;;;;;;;;;;;;;15.21;100.00;96265.59;10553961;28;2836;-74
2022/10/11 15:28:31;;;;;;;;;;;;;;;15.20;100.00;96270.19;10559475;28;2863;-74
2022/10/11 15:33:35;;;;;;;;;;;;;;;15.22;100.00;96269.91;10566683;28;3259;-73
2022/10/11 15:38:38;;;;;;;;;;;;;;;15.20;100.00;96272.09;10568984;28;3004;-74
2022/10/11 15:43:42;;;;;;;;;;;;;;;14.96;100.00;96259.41;10568468;28;3440;-75
2022/10/11 15:48:51;;;;;;;;;;;;;;;14.95;100.00;96268.63;10569442;28;3404;-74
2022/10/11 15:53:54;;;;;;;;;;;;;;;14.93;100.00;96265.38;10568666;28;2170;-74
2022/10/11 15:58:58;;;;;;;;;;;;;;;14.95;100.00;96265.91;10565157;28;2911;-75
2022/10/11 16:04:01;;;;;;;;;;;;;;;14.89;100.00;96261.66;10559293;28;3318;-76
2022/10/11 16:09:05;;;;;;;;;;;;;;;14.82;100.00;96255.75;10553242;28;3389;-76
2022/10/11 16:14:08;;;;;;;;;;;;;;;14.78;100.00;96263.66;10557733;28;2167;-75
2022/10/11 16:19:14;;;;;;;;;;;;;;;14.70;100.00;96269.72;10567704;28;2821;-76
2022/10/11 16:24:27;;;;;;;;;;;;;;;14.57;100.00;96273.13;10557244;28;3377;-77
2022/10/11 16:29:30;;;;;;;;;;;;;;;14.55;100.00;96270.66;10560490;28;3382;-75
2022/10/11 16:34:36;;;;;;;;;;;;;;;14.49;100.00;96271.81;10559288;28;2911;-76
2022/10/11 16:39:39;;;;;;;;;;;;;;;14.44;100.00;96273.72;10562685;28;2172;-75
2022/10/11 16:44:51;;;;;;;;;;;;;;;14.42;100.00;96281.34;10552375;28;2859;-76
2022/10/11 16:49:55;;;;;;;;;;;;;;;14.42;100.00;96278.63;10573967;28;3311;-76
2022/10/11 16:54:59;;;;;;;;;;;;;;;14.40;100.00;96284.31;10564038;28;2145;-75
2022/10/11 17:00:03;;;;;;;;;;;;;;;14.37;100.00;96284.88;10544228;28;2162;-75
2022/10/11 17:05:06;;;;;;;;;;;;;;;14.35;100.00;96295.19;10560782;28;2875;-79
2022/10/11 17:10:09;;;;;;;;;;;;;;;14.31;100.00;96292.25;10553215;28;2283;-76
2022/10/11 17:15:25;;;;;;;;;;;;;;;14.21;100.00;96291.53;10533875;28;2213;-76
2022/10/11 17:20:28;;;;;;;;;;;;;;;14.19;100.00;96293.72;10557066;28;3315;-75
2022/10/11 17:25:31;;;;;;;;;;;;;;;14.24;100.00;96288.25;10556312;28;3287;-75
2022/10/11 17:30:34;;;;;;;;;;;;;;;14.16;100.00;96288.88;10557536;28;3377;-74
2022/10/11 17:35:39;;;;;;;;;;;;;;;14.12;100.00;96288.63;10559040;28;3314;-74
2022/10/11 17:40:42;;;;;;;;;;;;;;;14.03;100.00;96307.34;10551921;28;2256;-77
2022/10/11 17:45:45;;;;;;;;;;;;;;;13.82;100.00;96310.50;10553280;28;3323;-76
2022/10/11 17:50:49;;;;;;;;;;;;;;;13.76;100.00;96315.13;10560162;28;2164;-75
2022/10/11 17:55:53;;;;;;;;;;;;;;;13.68;100.00;96310.31;10560755;28;2888;-75
2022/10/11 18:00:56;;;;;;;;;;;;;;;13.51;100.00;96313.38;10579421;27;3362;-76
2022/10/11 18:06:02;;;;;;;;;;;;;;;13.43;100.00;96320.19;10563221;27;3275;-75
2022/10/11 18:11:05;;;;;;;;;;;;;;;13.28;100.00;96319.44;10566501;28;3318;-75
2022/10/11 18:16:09;;;;;;;;;;;;;;;13.23;100.00;96314.84;10558694;28;2184;-77
2022/10/11 18:21:13;;;;;;;;;;;;;;;13.17;100.00;96315.97;10551548;28;2081;-76
2022/10/11 18:26:17;;;;;;;;;;;;;;;13.13;100.00;96304.91;10560923;28;2164;-73
2022/10/11 18:31:20;;;;;;;;;;;;;;;13.09;100.00;96303.00;10574453;27;2988;-77
2022/10/11 18:36:23;;;;;;;;;;;;;;;13.01;100.00;96300.91;10558379;28;3394;-77
2022/10/11 18:41:29;;;;;;;;;;;;;;;12.91;100.00;96297.13;10544845;28;3203;-77
2022/10/11 18:46:33;;;;;;;;;;;;;;;12.87;100.00;96296.09;10557875;28;2165;-76
2022/10/11 18:51:36;;;;;;;;;;;;;;;12.90;100.00;96300.13;10561048;28;2854;-78
2022/10/11 18:56:39;;;;;;;;;;;;;;;12.84;100.00;96299.31;10557681;28;3354;-77
2022/10/11 19:01:42;;;;;;;;;;;;;;;12.79;100.00;96306.63;10555255;28;3255;-77
2022/10/11 19:06:47;;;;;;;;;;;;;;;12.82;100.00;96301.50;10558925;28;2102;-76
2022/10/11 19:11:50;;;;;;;;;;;;;;;12.81;100.00;96305.28;10556166;28;3295;-76
2022/10/11 19:16:53;;;;;;;;;;;;;;;12.74;100.00;96302.06;10535213;28;3357;-77
2022/10/11 19:21:57;;;;;;;;;;;;;;;12.74;100.00;96307.47;10543798;28;3382;-76
2022/10/11 19:27:04;;;;;;;;;;;;;;;12.73;100.00;96305.84;10553593;28;3359;-77
2022/10/11 19:32:15;;;;;;;;;;;;;;;12.67;100.00;96305.06;10564167;28;3293;-75
2022/10/11 19:37:19;;;;;;;;;;;;;;;12.83;100.00;96305.81;10555656;28;3239;-75
2022/10/11 19:42:24;;;;;;;;;;;;;;;12.79;100.00;96310.16;10559627;28;2232;-77
2022/10/11 19:47:28;;;;;;;;;;;;;;;12.88;100.00;96302.28;10558570;28;3278;-74
2022/10/11 19:52:32;;;;;;;;;;;;;;;12.82;100.00;96306.91;10552315;28;3256;-76
2022/10/11 19:57:36;;;;;;;;;;;;;;;12.89;100.00;96299.31;10557908;28;3541;-77
2022/10/11 20:02:50;;;;;;;;;;;;;;;12.87;100.00;96300.69;10560390;28;2089;-75
2022/10/11 20:07:53;;;;;;;;;;;;;;;12.83;100.00;96294.22;10554180;28;2411;-76
2022/10/11 20:12:57;;;;;;;;;;;;;;;12.84;100.00;96306.63;10561898;28;3334;-75
2022/10/11 20:18:00;;;;;;;;;;;;;;;12.78;100.00;96308.50;10552572;28;2095;-71
2022/10/11 20:23:03;;;;;;;;;;;;;;;12.78;100.00;96315.81;10559082;28;3397;-74
2022/10/11 20:28:07;;;;;;;;;;;;;;;12.74;100.00;96310.16;10558736;28;3414;-73
2022/10/11 20:33:11;;;;;;;;;;;;;;;12.84;100.00;96307.41;10559003;28;2832;-75
2022/10/11 20:38:15;;;;;;;;;;;;;;;12.91;100.00;96316.03;10556828;28;2105;-75
2022/10/11 20:43:18;;;;;;;;;;;;;;;12.94;100.00;96309.28;10553638;28;3350;-75
2022/10/11 20:48:21;;;;;;;;;;;;;;;12.96;100.00;96316.00;10563724;28;2238;-77
2022/10/11 20:53:25;;;;;;;;;;;;;;;12.96;100.00;96305.22;10562519;28;2852;-78
2022/10/11 20:58:31;;;;;;;;;;;;;;;12.89;100.00;96299.31;10557247;28;3336;-75
2022/10/11 21:03:41;;;;;;;;;;;;;;;12.82;100.00;96304.19;10555894;28;2264;-74
2022/10/11 21:08:45;;;;;;;;;;;;;;;12.61;100.00;96295.34;10553649;28;2121;-78
2022/10/11 21:13:48;;;;;;;;;;;;;;;12.59;100.00;96296.69;10548634;28;2172;-75
2022/10/11 21:18:52;;;;;;;;;;;;;;;12.52;100.00;96296.16;10542912;28;3318;-75
2022/10/11 21:23:55;;;;;;;;;;;;;;;12.48;100.00;96297.81;10536581;28;2948;-75
2022/10/11 21:28:59;;;;;;;;;;;;;;;12.51;100.00;96303.47;10545838;28;2156;-75
2022/10/11 21:34:03;;;;;;;;;;;;;;;12.67;100.00;96301.56;10557920;28;2992;-74
2022/10/11 21:39:08;;;;;;;;;;;;;;;12.74;100.00;96299.38;10564409;28;2203;-76
2022/10/11 21:44:12;;;;;;;;;;;;;;;12.75;100.00;96314.47;10560685;28;2894;-75
2022/10/11 21:49:15;;;;;;;;;;;;;;;12.89;100.00;96299.31;10562616;28;2821;-73
2022/10/11 21:54:19;;;;;;;;;;;;;;;12.93;100.00;96297.69;10558441;28;3272;-73
2022/10/11 21:59:22;;;;;;;;;;;;;;;12.93;100.00;96297.69;10557104;28;2103;-72
2022/10/11 22:04:25;;;;;;;;;;;;;;;12.80;100.00;96292.88;10546450;28;3306;-74
2022/10/11 22:09:33;;;;;;;;;;;;;;;12.64;100.00;96294.00;10547539;28;3404;-75
2022/10/11 22:14:37;;;;;;;;;;;;;;;12.62;100.00;96296.16;10551876;28;2819;-75
2022/10/11 22:19:40;;;;;;;;;;;;;;;12.54;100.00;96294.84;10553037;28;3244;-77
2022/10/11 22:24:43;;;;;;;;;;;;;;;12.63;100.00;96287.00;10563529;28;3337;-74
2022/10/11 22:29:46;;;;;;;;;;;;;;;12.48;100.00;96273.56;10562742;27;2824;-73
2022/10/11 22:34:49;;;;;;;;;;;;;;;12.39;100.00;96274.09;10548154;28;3279;-74
2022/10/11 22:39:53;;;;;;;;;;;;;;;12.20;100.00;96277.63;10553648;28;3354;-73
2022/10/11 22:44:56;;;;;;;;;;;;;;;12.01;100.00;96271.97;10565669;28;2911;-75
2022/10/11 22:49:59;;;;;;;;;;;;;;;11.89;100.00;96274.94;10561405;28;2156;-74
2022/10/11 22:55:02;;;;;;;;;;;;;;;11.75;100.00;96269.25;10554301;28;3322;-74
2022/10/11 23:00:06;;;;;;;;;;;;;;;11.73;100.00;96276.81;10555650;28;2851;-73
2022/10/11 23:05:19;;;;;;;;;;;;;;;11.60;100.00;96283.53;10555997;28;3262;-74
2022/10/11 23:10:23;;;;;;;;;;;;;;;11.52;100.00;96291.31;10561241;28;2160;-74
2022/10/11 23:15:26;;;;;;;;;;;;;;;11.48;100.00;96290.22;10554280;28;2870;-74
2022/10/11 23:20:29;;;;;;;;;;;;;;;11.41;100.00;96287.00;10550688;28;3339;-75
2022/10/11 23:25:36;;;;;;;;;;;;;;;11.30;100.00;96289.63;10557804;28;3299;-73
2022/10/11 23:30:44;;;;;;;;;;;;;;;11.26;100.00;96287.75;10566424;28;3365;-74
2022/10/11 23:35:47;;;;;;;;;;;;;;;11.17;100.00;96295.53;10560912;28;2240;-73
2022/10/11 23:40:50;;;;;;;;;;;;;;;11.08;100.00;96294.44;10553198;28;2858;-73
2022/10/11 23:45:54;;;;;;;;;;;;;;;11.02;100.00;96292.78;10554174;28;2792;-75
2022/10/11 23:50:57;;;;;;;;;;;;;;;11.21;100.00;96295.81;10569846;28;2120;-73
2022/10/11 23:56:01;;;;;;;;;;;;;;;11.26;100.00;96303.88;10569107;28;2820;-75
